Time;durP1;ratioP1;P1;durP2;ratioP2;P2;SDS_P1;SDS_P2;PMS_P1;PMS_P2;Temp;Humidity;BMP_temperature;BMP_pressure;BME280_temperature;BME280_humidity;BME280_pressure;Samples;Min_cycle;Max_cycle;Signal;HPM_P1;HPM_P2
2023/08/20 00:01:58;;;;;;;0.88;0.82;;;;;;;19.79;100.00;100189.44;4820733;29;20503;-95
2023/08/20 00:04:26;;;;;;;2.30;1.45;;;;;;;19.88;100.00;100201.31;4822210;29;20522;-95
2023/08/20 00:06:52;;;;;;;1.58;1.48;;;;;;;19.85;100.00;100199.50;4807589;29;20136;-95
2023/08/20 00:09:17;;;;;;;1.30;1.20;;;;;;;19.70;100.00;100181.94;4799716;29;20160;-95
2023/08/20 00:11:43;;;;;;;1.10;0.98;;;;;;;19.85;100.00;100198.72;4804745;29;20046;-95
2023/08/20 00:14:16;;;;;;;1.95;1.50;;;;;;;19.67;100.00;100179.34;4804659;29;20038;-95
2023/08/20 00:16:42;;;;;;;0.57;0.57;;;;;;;19.84;100.00;100202.81;4816001;29;20537;-95
2023/08/20 00:19:09;;;;;;;1.40;1.30;;;;;;;20.06;100.00;100233.97;4805476;29;20038;-95
2023/08/20 00:21:35;;;;;;;1.15;1.05;;;;;;;19.69;100.00;100180.41;4790286;29;20158;-95
2023/08/20 00:24:00;;;;;;;1.27;1.17;;;;;;;19.79;100.00;100201.47;4814351;29;20038;-95
2023/08/20 00:26:26;;;;;;;4.75;2.10;;;;;;;19.69;100.00;100196.50;4821672;29;20509;-95
2023/08/20 00:28:52;;;;;;;0.63;0.63;;;;;;;19.86;100.00;100234.03;4804844;29;20042;-95
2023/08/20 00:31:17;;;;;;;2.42;1.40;;;;;;;19.44;100.00;100187.56;4814262;29;20419;-95
2023/08/20 00:33:43;;;;;;;0.80;0.80;;;;;;;19.63;100.00;100215.38;4822279;29;20506;-94
2023/08/20 00:36:09;;;;;;;1.02;0.82;;;;;;;19.53;100.00;100195.81;4806707;29;20050;-94
2023/08/20 00:38:34;;;;;;;0.75;0.75;;;;;;;19.53;100.00;100218.31;4800551;29;20035;-96
2023/08/20 00:41:01;;;;;;;1.10;0.75;;;;;;;19.53;100.00;100218.31;4791583;29;20038;-94
2023/08/20 00:43:27;;;;;;;1.80;0.80;;;;;;;19.47;100.00;100208.28;4805679;29;20107;-95
2023/08/20 00:45:52;;;;;;;2.03;1.63;;;;;;;19.35;100.00;100207.34;4811462;29;20073;-95
2023/08/20 00:48:18;;;;;;;0.70;0.70;;;;;;;19.58;100.00;100236.53;4802681;29;20187;-95
2023/08/20 00:50:44;;;;;;;1.13;1.05;;;;;;;19.49;100.00;100223.41;4804601;29;20058;-95
2023/08/20 00:53:11;;;;;;;4.68;2.05;;;;;;;19.57;100.00;100220.16;4799890;29;20118;-94
2023/08/20 00:55:37;;;;;;;1.42;1.33;;;;;;;19.48;100.00;100221.88;4816433;29;20057;-94
2023/08/20 00:58:03;;;;;;;1.90;0.82;;;;;;;19.38;100.00;100197.94;4818686;29;20129;-95
2023/08/20 01:03:21;;;;;;;1.75;0.95;;;;;;;19.57;100.00;100234.25;3476783;23;20078;-90
2023/08/20 01:05:51;;;;;;;1.90;1.42;;;;;;;19.60;100.00;100238.88;4776446;29;20162;-91
2023/08/20 01:08:29;;;;;;;3.78;1.23;;;;;;;19.53;100.00;100229.59;4799459;29;20049;-91
2023/08/20 01:11:05;;;;;;;1.48;1.10;;;;;;;19.50;100.00;100230.56;4761789;29;20051;-91
2023/08/20 01:13:33;;;;;;;1.90;1.48;;;;;;;19.49;100.00;100226.22;4784290;29;20050;-90
2023/08/20 01:15:58;;;;;;;0.68;0.68;;;;;;;19.45;100.00;100216.47;4760425;29;20060;-90
2023/08/20 01:18:24;;;;;;;1.33;1.08;;;;;;;19.44;100.00;100226.94;4787666;29;20046;-90
2023/08/20 01:21:00;;;;;;;0.75;0.65;;;;;;;19.32;100.00;100221.63;4757886;29;20047;-90
2023/08/20 01:23:48;;;;;;;1.73;0.98;;;;;;;19.41;100.00;100232.75;4774604;29;20043;-91
2023/08/20 01:26:16;;;;;;;2.90;1.58;;;;;;;19.39;100.00;100230.41;4795809;29;20058;-90
2023/08/20 01:28:43;;;;;;;1.75;1.42;;;;;;;19.34;100.00;100219.88;4804169;29;20051;-91
2023/08/20 01:31:10;;;;;;;0.55;0.43;;;;;;;19.17;100.00;100202.00;4789811;29;20039;-89
2023/08/20 01:33:36;;;;;;;1.02;0.88;;;;;;;19.19;100.00;100212.78;4753998;29;20429;-90
2023/08/20 01:36:02;;;;;;;1.13;0.95;;;;;;;19.20;100.00;100212.28;4772129;29;20129;-90
2023/08/20 01:38:27;;;;;;;1.58;1.35;;;;;;;19.17;100.00;100218.88;4801505;29;20138;-89
2023/08/20 01:40:53;;;;;;;1.60;1.50;;;;;;;19.15;100.00;100215.81;4797144;29;20035;-91
2023/08/20 01:43:18;;;;;;;2.60;1.92;;;;;;;19.18;100.00;100226.06;4757384;29;20051;-90
2023/08/20 01:45:44;;;;;;;2.10;1.30;;;;;;;19.00;100.00;100213.06;4796475;29;20043;-91
2023/08/20 01:48:10;;;;;;;1.52;1.42;;;;;;;19.06;100.00;100222.31;4771525;29;20050;-90
2023/08/20 01:50:35;;;;;;;1.67;1.58;;;;;;;19.09;100.00;100237.44;4773262;29;20050;-90
2023/08/20 01:53:02;;;;;;;0.88;0.80;;;;;;;18.98;100.00;100226.81;4785195;29;20142;-91
2023/08/20 01:55:28;;;;;;;1.13;1.05;;;;;;;19.02;100.00;100227.38;4772851;29;20116;-91
2023/08/20 01:57:54;;;;;;;1.02;0.95;;;;;;;19.01;100.00;100231.44;4769282;29;20036;-90
2023/08/20 02:00:20;;;;;;;2.55;1.73;;;;;;;18.96;100.00;100237.03;4786187;29;20583;-90
2023/08/20 02:02:45;;;;;;;2.20;1.58;;;;;;;18.86;100.00;100241.19;4778175;29;20502;-91
2023/08/20 02:05:11;;;;;;;1.05;0.95;;;;;;;18.72;100.00;100227.97;4783404;29;20074;-90
2023/08/20 02:07:37;;;;;;;0.47;0.47;;;;;;;18.87;100.00;100242.75;4754625;30;20044;-90
2023/08/20 02:10:04;;;;;;;1.40;1.30;;;;;;;18.91;100.00;100244.09;4775731;29;20069;-90
2023/08/20 02:12:30;;;;;;;0.77;0.75;;;;;;;18.89;100.00;100243.03;4766000;30;20051;-91
2023/08/20 02:14:55;;;;;;;0.80;0.80;;;;;;;18.82;100.00;100230.16;4755308;30;20047;-90
2023/08/20 02:17:23;;;;;;;0.30;0.30;;;;;;;18.84;100.00;100233.28;4753552;30;20134;-90
2023/08/20 02:19:49;;;;;;;1.83;1.30;;;;;;;18.88;100.00;100238.69;4785308;29;20964;-90
2023/08/20 02:22:14;;;;;;;1.13;0.93;;;;;;;18.76;100.00;100240.56;4760654;30;20051;-93
2023/08/20 02:24:40;;;;;;;1.45;1.35;;;;;;;18.76;100.00;100245.41;4786494;29;20044;-93
2023/08/20 02:27:07;;;;;;;2.03;1.35;;;;;;;18.59;100.00;100223.47;4764913;30;20528;-89
2023/08/20 02:29:32;;;;;;;0.65;0.55;;;;;;;18.76;100.00;100248.22;4783644;29;20035;-91
2023/08/20 02:31:58;;;;;;;0.80;0.75;;;;;;;18.78;100.00;100245.69;4769644;30;20054;-90
2023/08/20 02:34:24;;;;;;;1.10;1.10;;;;;;;18.78;100.00;100235.22;4755567;30;20053;-91
2023/08/20 02:36:50;;;;;;;1.02;1.02;;;;;;;18.79;100.00;100239.59;4753569;30;20131;-92
2023/08/20 02:39:16;;;;;;;0.95;0.90;;;;;;;18.82;100.00;100237.81;4750173;30;20592;-94
2023/08/20 02:41:42;;;;;;;3.75;2.20;;;;;;;18.82;100.00;100232.19;4774192;30;20058;-90
2023/08/20 02:44:08;;;;;;;2.50;2.30;;;;;;;18.76;100.00;100234.16;4751319;30;20109;-90
2023/08/20 02:46:34;;;;;;;1.77;1.67;;;;;;;18.70;100.00;100230.50;4764816;30;20047;-91
2023/08/20 02:49:00;;;;;;;1.55;1.45;;;;;;;18.68;100.00;100238.66;4768012;29;20482;-90
2023/08/20 02:51:27;;;;;;;2.00;1.42;;;;;;;18.63;100.00;100226.06;4752982;30;20506;-90
2023/08/20 02:53:56;;;;;;;1.27;1.17;;;;;;;18.69;100.00;100245.78;4774229;29;20111;-91
2023/08/20 02:56:22;;;;;;;1.17;1.08;;;;;;;18.68;100.00;100233.81;4752347;29;20390;-91
2023/08/20 02:58:47;;;;;;;0.82;0.82;;;;;;;18.60;100.00;100247.47;4779504;29;20400;-91
2023/08/20 03:01:22;;;;;;;1.23;1.15;;;;;;;18.45;100.00;100235.44;4783139;29;20155;-89
2023/08/20 03:03:48;;;;;;;1.20;1.10;;;;;;;18.30;100.00;100233.91;4767681;30;20145;-91
2023/08/20 03:06:14;;;;;;;1.65;1.13;;;;;;;18.30;100.00;100231.88;4776209;29;20134;-91
2023/08/20 03:08:40;;;;;;;0.45;0.45;;;;;;;18.18;100.00;100225.31;4782646;29;20323;-91
2023/08/20 03:11:05;;;;;;;1.63;1.30;;;;;;;18.33;100.00;100247.75;4765147;29;20039;-90
2023/08/20 03:13:31;;;;;;;1.15;1.08;;;;;;;18.26;100.00;100234.13;4766380;30;20421;-90
2023/08/20 03:15:56;;;;;;;1.35;1.25;;;;;;;18.21;100.00;100220.75;4780029;29;20105;-90
2023/08/20 03:18:22;;;;;;;1.23;1.02;;;;;;;18.26;100.00;100231.31;4766717;30;20527;-91
2023/08/20 03:20:48;;;;;;;1.48;1.20;;;;;;;18.24;100.00;100233.06;4771817;29;20043;-88
2023/08/20 03:23:13;;;;;;;4.82;2.25;;;;;;;18.28;100.00;100237.19;4776308;29;20135;-89
2023/08/20 03:25:39;;;;;;;0.82;0.82;;;;;;;18.28;100.00;100244.88;4768546;30;20134;-90
2023/08/20 03:28:05;;;;;;;2.08;1.55;;;;;;;18.13;100.00;100228.00;4767764;30;20134;-90
2023/08/20 03:30:31;;;;;;;2.45;1.38;;;;;;;18.09;100.00;100233.06;4768612;30;20046;-90
2023/08/20 03:32:57;;;;;;;2.15;1.95;;;;;;;18.17;100.00;100239.81;4778401;30;20059;-90
2023/08/20 03:35:24;;;;;;;1.90;1.52;;;;;;;18.07;100.00;100218.75;4752808;30;20046;-90
2023/08/20 03:37:50;;;;;;;3.97;2.40;;;;;;;18.16;100.00;100238.28;4767637;30;20047;-89
2023/08/20 03:40:15;;;;;;;1.35;1.25;;;;;;;18.11;100.00;100231.31;4769452;30;20135;-89
2023/08/20 03:42:41;;;;;;;2.60;2.10;;;;;;;18.11;100.00;100239.75;4767551;30;20047;-90
2023/08/20 03:45:08;;;;;;;2.13;1.48;;;;;;;18.09;100.00;100233.81;4767265;30;20058;-89
2023/08/20 03:47:36;;;;;;;1.17;1.10;;;;;;;18.16;100.00;100238.28;4765406;30;20122;-91
2023/08/20 03:50:02;;;;;;;3.08;1.67;;;;;;;18.15;100.00;100208.66;4753555;30;20039;-91
2023/08/20 03:52:28;;;;;;;0.85;0.80;;;;;;;18.27;100.00;100220.84;4782041;29;20104;-91
2023/08/20 03:54:53;;;;;;;2.08;1.88;;;;;;;18.36;100.00;100237.59;4766735;30;20043;-92
2023/08/20 03:57:19;;;;;;;1.98;1.17;;;;;;;18.20;100.00;100236.03;4767660;29;20521;-91
2023/08/20 03:59:45;;;;;;;0.80;0.80;;;;;;;18.10;100.00;100234.59;4764846;30;20061;-91
2023/08/20 04:02:13;;;;;;;1.85;1.13;;;;;;;18.06;100.00;100234.03;4778301;29;20051;-91
2023/08/20 04:04:39;;;;;;;1.55;1.33;;;;;;;18.18;100.00;100261.03;4759501;30;20407;-92
2023/08/20 04:07:04;;;;;;;2.03;1.88;;;;;;;18.02;100.00;100247.47;4767942;30;20047;-92
2023/08/20 04:09:32;;;;;;;1.20;1.08;;;;;;;18.08;100.00;100249.13;4782746;29;20055;-92
2023/08/20 04:11:58;;;;;;;0.93;0.82;;;;;;;18.09;100.00;100245.06;4783398;29;20058;-92
2023/08/20 04:14:23;;;;;;;1.35;1.27;;;;;;;18.11;100.00;100247.38;4752722;29;20055;-91
2023/08/20 04:16:49;;;;;;;1.55;1.45;;;;;;;18.17;100.00;100267.91;4779884;29;20069;-92
2023/08/20 04:19:14;;;;;;;1.98;1.60;;;;;;;18.11;100.00;100253.00;4767149;30;20128;-91
2023/08/20 04:21:40;;;;;;;2.17;1.70;;;;;;;18.26;100.00;100273.44;4769488;30;20051;-91
2023/08/20 04:24:06;;;;;;;1.17;1.08;;;;;;;18.28;100.00;100259.66;4782091;29;20352;-91
2023/08/20 04:26:32;;;;;;;1.17;0.90;;;;;;;18.32;100.00;100251.06;4782961;29;20138;-91
2023/08/20 04:28:58;;;;;;;1.25;1.15;;;;;;;18.39;100.00;100257.06;4778909;29;20518;-92
2023/08/20 04:31:23;;;;;;;1.25;1.15;;;;;;;18.43;100.00;100251.25;4767104;30;20051;-94
2023/08/20 04:33:59;;;;;;;0.70;0.68;;;;;;;18.58;100.00;100272.47;4776764;30;20142;-92
2023/08/20 04:36:38;;;;;;;1.27;0.95;;;;;;;18.63;100.00;100249.31;4755974;29;20142;-91
2023/08/20 04:39:04;;;;;;;1.67;1.25;;;;;;;18.78;100.00;100265.34;4782597;30;20043;-92
2023/08/20 04:41:33;;;;;;;1.08;1.05;;;;;;;18.78;100.00;100257.69;4746980;30;20050;-91
2023/08/20 04:43:59;;;;;;;1.35;1.23;;;;;;;18.75;100.00;100249.47;4782095;30;20052;-93
2023/08/20 04:46:25;;;;;;;3.45;1.13;;;;;;;18.72;100.00;100245.63;4780862;29;20121;-92
2023/08/20 04:48:51;;;;;;;2.58;1.65;;;;;;;18.91;100.00;100263.00;4751703;30;20574;-92
2023/08/20 04:51:18;;;;;;;1.50;1.40;;;;;;;18.89;100.00;100254.28;4769256;30;20051;-94
2023/08/20 04:53:44;;;;;;;3.80;2.50;;;;;;;18.98;100.00;100271.03;4786950;29;20105;-90
2023/08/20 04:56:09;;;;;;;2.67;2.15;;;;;;;19.08;100.00;100266.84;4771558;29;20081;-92
2023/08/20 04:58:35;;;;;;;2.30;1.38;;;;;;;18.99;100.00;100241.66;4786089;29;20536;-91
2023/08/20 05:01:00;;;;;;;1.40;1.30;;;;;;;19.15;100.00;100266.41;4783649;29;20054;-92
2023/08/20 05:03:28;;;;;;;2.03;1.30;;;;;;;19.24;100.00;100262.69;4776890;29;20403;-91
2023/08/20 05:05:54;;;;;;;1.10;0.90;;;;;;;19.23;100.00;100261.91;4800520;29;20047;-92
2023/08/20 05:08:20;;;;;;;1.17;1.08;;;;;;;19.49;100.00;100279.66;4788752;29;20049;-92
2023/08/20 05:10:46;;;;;;;1.17;1.08;;;;;;;19.58;100.00;100256.25;4777084;29;20051;-92
2023/08/20 05:13:12;;;;;;;2.33;1.63;;;;;;;19.79;100.00;100290.75;4781740;29;20443;-93
2023/08/20 05:15:37;;;;;;;1.00;0.70;;;;;;;19.92;100.00;100271.47;4803745;29;20073;-92
2023/08/20 05:18:03;;;;;;;1.35;1.30;;;;;;;20.04;100.00;100275.94;4802685;29;20057;-92
2023/08/20 05:20:29;;;;;;;2.70;1.50;;;;;;;20.15;100.00;100278.88;4788684;29;20061;-91
2023/08/20 05:22:54;;;;;;;1.50;1.40;;;;;;;20.34;100.00;100296.25;4788114;29;20099;-91
2023/08/20 05:25:20;;;;;;;1.70;1.60;;;;;;;20.26;100.00;100264.88;4806431;29;20058;-92
2023/08/20 05:27:49;;;;;;;2.40;1.92;;;;;;;20.46;100.00;100275.34;4802862;29;20089;-92
2023/08/20 05:30:16;;;;;;;1.25;1.15;;;;;;;20.62;100.00;100288.03;4805177;29;20043;-91
2023/08/20 05:32:41;;;;;;;2.53;1.45;;;;;;;20.71;100.00;100277.31;4794532;29;20095;-93
2023/08/20 05:35:07;;;;;;;1.40;1.30;;;;;;;20.86;100.00;100263.09;4802007;29;20051;-92
2023/08/20 05:37:33;;;;;;;1.48;0.95;;;;;;;21.19;100.00;100291.50;4804179;29;20046;-92
2023/08/20 05:39:59;;;;;;;1.80;1.30;;;;;;;21.12;100.00;100269.44;4787363;29;20085;-92
2023/08/20 05:42:25;;;;;;;2.72;1.80;;;;;;;21.26;100.00;100279.78;4804205;29;20046;-92
2023/08/20 05:44:56;;;;;;;1.27;1.17;;;;;;;21.41;100.00;100293.69;4803040;29;20421;-92
2023/08/20 05:47:26;;;;;;;1.17;1.10;;;;;;;21.51;100.00;100295.03;4802362;29;20069;-91
2023/08/20 05:49:51;;;;;;;4.10;3.13;;;;;;;21.49;100.00;100291.94;4800962;29;20509;-91
2023/08/20 05:52:17;;;;;;;6.82;2.10;;;;;;;21.60;100.00;100303.25;4788170;29;20398;-93
2023/08/20 05:54:43;;;;;;;2.83;1.35;;;;;;;21.73;100.00;100299.97;4771371;29;20544;-92
2023/08/20 05:57:09;;;;;;;1.15;1.00;;;;;;;21.68;100.00;100284.56;4783248;29;20599;-92
2023/08/20 05:59:35;;;;;;;2.25;1.83;;;;;;;22.03;100.00;100311.66;4775221;29;20051;-93
2023/08/20 06:02:02;;;;;;;2.13;1.92;;;;;;;22.23;100.00;100312.22;4796313;29;20164;-93
2023/08/20 06:04:27;;;;;;;2.20;1.63;;;;;;;22.31;100.00;100287.84;4782589;29;20494;-93
2023/08/20 06:06:53;;;;;;;2.38;1.90;;;;;;;22.70;100.00;100318.19;4797317;29;20140;-92
2023/08/20 06:09:19;;;;;;;1.63;1.52;;;;;;;22.81;100.00;100289.91;4797692;29;20104;-93
2023/08/20 06:11:44;;;;;;;1.65;1.35;;;;;;;23.12;100.00;100311.47;4797961;29;20051;-93
2023/08/20 06:14:10;;;;;;;1.27;1.17;;;;;;;23.23;100.00;100298.06;4797783;29;20062;-92
2023/08/20 06:16:36;;;;;;;2.10;1.88;;;;;;;23.57;100.00;100298.00;4792099;29;20043;-91
2023/08/20 06:19:01;;;;;;;1.90;1.75;;;;;;;23.76;100.00;100298.94;4774701;29;20055;-93
2023/08/20 06:21:27;;;;;;;2.35;1.58;;;;;;;24.01;100.00;100306.28;4796511;29;20079;-93
2023/08/20 06:23:53;;;;;;;1.80;1.70;;;;;;;24.21;100.00;100310.06;4799793;29;20530;-92
2023/08/20 06:26:24;;;;;;;1.77;1.17;;;;;;;24.37;100.00;100309.94;4807714;29;20039;-93
2023/08/20 06:28:50;;;;;;;1.83;1.73;;;;;;;24.45;100.00;100313.75;4784399;29;20055;-92
2023/08/20 06:31:15;;;;;;;1.58;1.15;;;;;;;24.75;100.00;100325.09;4778814;29;20109;-92
2023/08/20 06:33:41;;;;;;;3.00;1.50;;;;;;;24.90;100.00;100327.59;4779888;30;20460;-93
2023/08/20 06:36:06;;;;;;;1.15;1.05;;;;;;;25.00;100.00;100315.38;4795754;29;20039;-93
2023/08/20 06:38:32;;;;;;;2.50;1.83;;;;;;;25.23;100.00;100318.78;4775728;30;20047;-94
2023/08/20 06:40:57;;;;;;;7.40;2.05;;;;;;;25.36;100.00;100326.59;4783766;29;20048;-93
2023/08/20 06:43:23;;;;;;;2.08;1.83;;;;;;;25.68;100.00;100341.00;4802442;29;20027;-91
2023/08/20 06:45:48;;;;;;;2.47;1.83;;;;;;;25.77;100.00;100304.47;4784816;29;20054;-91
2023/08/20 06:48:14;;;;;;;0.75;0.60;;;;;;;26.21;100.00;100333.59;4784007;29;20696;-91
2023/08/20 06:50:41;;;;;;;1.85;1.65;;;;;;;26.28;100.00;100313.09;4780559;29;20046;-91
2023/08/20 06:53:07;;;;;;;1.23;0.98;;;;;;;26.54;100.00;100335.19;4784885;29;20133;-92
2023/08/20 06:55:32;;;;;;;1.67;1.40;;;;;;;26.80;100.00;100335.28;4778987;29;20051;-93
2023/08/20 06:57:58;;;;;;;2.03;1.30;;;;;;;26.98;100.00;100328.00;4782685;29;20521;-90
2023/08/20 07:00:23;;;;;;;4.57;2.25;;;;;;;26.98;100.00;100334.47;4774276;30;20110;-92
2023/08/20 07:02:49;;;;;;;1.08;0.80;;;;;;;27.03;100.00;100330.75;4775079;30;20399;-92
2023/08/20 07:05:14;;;;;;;0.88;0.85;;;;;;;27.38;100.00;100349.53;4782378;29;20050;-93
2023/08/20 07:07:40;;;;;;;2.28;1.73;;;;;;;27.67;100.00;100345.63;4781617;30;20112;-91
2023/08/20 07:10:06;;;;;;;2.00;1.60;;;;;;;27.68;100.00;100326.44;4785243;29;20104;-93
2023/08/20 07:12:32;;;;;;;2.20;1.90;;;;;;;27.87;100.00;100340.53;4783613;29;20108;-90
2023/08/20 07:14:57;;;;;;;1.88;1.75;;;;;;;28.00;100.00;100346.25;4781285;29;20051;-92
2023/08/20 07:17:23;;;;;;;1.90;1.52;;;;;;;27.89;100.00;100349.34;4779920;29;20043;-92
2023/08/20 07:19:48;;;;;;;0.90;0.90;;;;;;;28.04;100.00;100352.38;4765344;30;20047;-91
2023/08/20 07:22:14;;;;;;;2.17;1.38;;;;;;;28.00;100.00;100349.09;4753680;29;20081;-91
2023/08/20 07:24:39;;;;;;;0.82;0.73;;;;;;;28.01;100.00;100350.63;4766346;30;20043;-92
2023/08/20 07:27:10;;;;;;;1.70;1.38;;;;;;;27.96;100.00;100340.88;4767008;30;20052;-93
2023/08/20 07:29:36;;;;;;;1.48;1.38;;;;;;;28.14;100.00;100350.63;4781415;29;20732;-92
2023/08/20 07:32:03;;;;;;;1.75;1.40;;;;;;;28.38;100.00;100358.91;4781555;29;20116;-92
2023/08/20 07:34:30;;;;;;;1.35;1.08;;;;;;;28.46;100.00;100348.34;4763941;30;20538;-93
2023/08/20 07:36:56;;;;;;;1.55;1.17;;;;;;;28.71;100.00;100368.78;4783945;29;20506;-92
2023/08/20 07:39:22;;;;;;;2.95;1.48;;;;;;;28.94;100.00;100352.63;4782154;29;20059;-93
2023/08/20 07:41:48;;;;;;;3.03;1.58;;;;;;;28.95;98.75;100351.31;4753067;30;20051;-94
2023/08/20 07:44:13;;;;;;;1.38;1.27;;;;;;;29.10;98.77;100354.28;4764098;30;20048;-91
2023/08/20 07:46:39;;;;;;;1.63;1.05;;;;;;;29.28;92.41;100368.91;4780633;29;21970;-93
2023/08/20 07:49:08;;;;;;;1.00;1.00;;;;;;;29.40;91.47;100376.63;4774464;29;20676;-93
2023/08/20 07:51:36;;;;;;;2.25;1.83;;;;;;;29.49;90.92;100364.69;4756418;30;20371;-92
2023/08/20 07:54:01;;;;;;;1.65;1.08;;;;;;;29.57;89.79;100374.09;4766056;30;20051;-92
2023/08/20 07:56:27;;;;;;;2.30;2.08;;;;;;;29.49;89.51;100373.28;4781453;29;20078;-92
2023/08/20 07:58:52;;;;;;;0.73;0.70;;;;;;;29.54;90.46;100372.34;4780462;29;20133;-93
2023/08/20 08:01:18;;;;;;;9.20;2.10;;;;;;;29.80;90.25;100376.31;4766571;30;20055;-91
2023/08/20 08:03:44;;;;;;;2.08;1.10;;;;;;;29.90;87.87;100385.94;4780606;29;20390;-92
2023/08/20 08:06:09;;;;;;;2.08;1.63;;;;;;;30.06;100.00;100379.72;4779482;30;20502;-91
2023/08/20 08:08:35;;;;;;;1.92;1.42;;;;;;;30.33;100.00;100382.31;4781232;29;20042;-92
2023/08/20 08:11:00;;;;;;;0.82;0.70;;;;;;;30.53;100.00;100375.72;4784938;29;20047;-91
2023/08/20 08:13:26;;;;;;;2.67;1.52;;;;;;;30.65;100.00;100381.88;4759929;30;20051;-91
2023/08/20 08:15:52;;;;;;;1.58;1.35;;;;;;;30.85;100.00;100380.94;4769248;29;20417;-91
2023/08/20 08:18:19;;;;;;;0.82;0.80;;;;;;;30.87;100.00;100383.97;4763666;30;20116;-92
2023/08/20 08:20:44;;;;;;;1.77;1.17;;;;;;;30.77;81.07;100372.34;4778912;29;20039;-93
2023/08/20 08:23:10;;;;;;;1.95;1.00;;;;;;;30.62;76.94;100377.25;4766856;29;20061;-91
2023/08/20 08:25:37;;;;;;;0.77;0.68;;;;;;;30.78;77.87;100390.25;4763400;29;20514;-92
2023/08/20 08:28:03;;;;;;;1.75;1.48;;;;;;;30.84;78.12;100382.28;4776426;29;20541;-93
2023/08/20 08:30:29;;;;;;;0.90;0.68;;;;;;;30.79;77.06;100380.34;4778541;29;20039;-91
2023/08/20 08:32:55;;;;;;;1.88;1.10;;;;;;;30.68;75.72;100370.03;4778782;29;20458;-93
2023/08/20 08:35:20;;;;;;;0.90;0.90;;;;;;;30.91;75.42;100390.09;4757177;29;20063;-92
2023/08/20 08:37:46;;;;;;;1.13;1.05;;;;;;;31.13;75.15;100375.06;4775324;29;20490;-93
2023/08/20 08:40:12;;;;;;;1.23;1.13;;;;;;;31.15;75.38;100380.97;4780279;29;20490;-91
2023/08/20 08:42:38;;;;;;;2.15;1.90;;;;;;;31.32;75.52;100368.94;4778706;30;20063;-94
2023/08/20 08:45:04;;;;;;;3.10;1.15;;;;;;;31.73;72.84;100382.09;4736957;30;20093;-93
2023/08/20 08:47:30;;;;;;;1.95;1.67;;;;;;;31.84;66.81;100378.81;4780323;29;20152;-92
2023/08/20 08:49:56;;;;;;;1.25;1.15;;;;;;;32.06;66.15;100369.38;4779804;29;20452;-91
2023/08/20 08:52:25;;;;;;;1.67;1.58;;;;;;;32.24;66.02;100381.72;4780847;29;20577;-90
2023/08/20 08:54:52;;;;;;;0.73;0.73;;;;;;;32.45;53.25;100373.59;4766685;29;20118;-91
2023/08/20 08:57:17;;;;;;;1.30;1.10;;;;;;;32.58;52.61;100393.44;4751812;29;20047;-92
2023/08/20 08:59:43;;;;;;;1.25;0.85;;;;;;;32.49;55.00;100384.66;4765374;29;20100;-92
2023/08/20 09:22:50;;;;;;;1.42;1.23;;;;;;;33.25;53.45;100374.22;1402448;27;19929;-90
2023/08/20 09:25:17;;;;;;;1.50;1.02;;;;;;;33.41;53.16;100362.56;4814715;29;20066;-93
2023/08/20 09:27:43;;;;;;;1.50;1.27;;;;;;;33.49;52.39;100360.38;4833441;29;20075;-91
2023/08/20 09:30:10;;;;;;;1.08;0.80;;;;;;;33.78;49.40;100361.44;4817495;29;20072;-93
2023/08/20 09:32:35;;;;;;;2.08;1.70;;;;;;;33.69;50.07;100362.09;4835008;29;20269;-90
2023/08/20 09:35:01;;;;;;;0.80;0.70;;;;;;;34.00;48.65;100376.94;4831969;29;20038;-92
2023/08/20 09:37:26;;;;;;;1.48;0.95;;;;;;;34.10;46.05;100364.13;4823834;29;20065;-91
2023/08/20 09:39:52;;;;;;;1.27;1.13;;;;;;;34.15;44.97;100359.50;4794131;29;20060;-92
2023/08/20 09:42:18;;;;;;;7.32;1.85;;;;;;;34.31;45.59;100383.84;4811175;29;20065;-91
2023/08/20 09:44:45;;;;;;;0.70;0.70;;;;;;;34.15;43.11;100371.78;4819859;29;20551;-91
2023/08/20 09:47:12;;;;;;;1.20;1.10;;;;;;;34.39;43.82;100361.47;4796174;29;20061;-91
2023/08/20 09:49:46;;;;;;;0.80;0.80;;;;;;;34.56;42.26;100375.06;4823183;29;20046;-92
2023/08/20 09:52:16;;;;;;;0.98;0.95;;;;;;;34.15;43.23;100366.00;4817527;29;20066;-92
2023/08/20 09:54:52;;;;;;;1.27;1.17;;;;;;;34.21;41.26;100371.50;4809798;29;20050;-92
2023/08/20 09:57:43;;;;;;;1.27;1.17;;;;;;;34.34;43.33;100376.13;4804833;29;20175;-91
2023/08/20 10:00:11;;;;;;;1.00;0.95;;;;;;;34.29;43.50;100357.00;4815305;29;20074;-90
2023/08/20 10:02:39;;;;;;;1.20;1.10;;;;;;;34.28;42.99;100361.25;4823317;29;20458;-90
2023/08/20 10:05:10;;;;;;;0.70;0.70;;;;;;;34.43;41.13;100378.31;4827806;29;20140;-91
2023/08/20 10:07:36;;;;;;;0.73;0.73;;;;;;;34.79;42.26;100375.50;4824867;29;20040;-91
2023/08/20 10:10:04;;;;;;;1.13;0.82;;;;;;;35.02;42.78;100364.34;4825805;29;20050;-91
2023/08/20 10:12:31;;;;;;;1.02;0.93;;;;;;;34.98;41.78;100375.56;4796963;29;20499;-90
2023/08/20 10:14:57;;;;;;;1.10;1.00;;;;;;;34.86;39.26;100351.56;4798336;29;20043;-90
2023/08/20 10:17:23;;;;;;;4.32;1.50;;;;;;;34.77;42.41;100363.06;4808144;29;20062;-90
2023/08/20 10:19:53;;;;;;;0.93;0.73;;;;;;;35.00;43.94;100361.34;4825436;29;20037;-91
2023/08/20 10:22:19;;;;;;;0.90;0.90;;;;;;;35.07;39.36;100369.09;4791171;29;20045;-92
2023/08/20 10:24:51;;;;;;;1.10;1.00;;;;;;;35.09;40.17;100374.25;4822654;29;20049;-91
2023/08/20 10:27:28;;;;;;;1.60;1.50;;;;;;;35.14;40.11;100364.59;4827913;29;20050;-93
2023/08/20 10:29:54;;;;;;;1.85;1.40;;;;;;;35.06;41.52;100347.38;4823001;29;20046;-92
2023/08/20 10:32:21;;;;;;;2.45;1.92;;;;;;;35.15;39.73;100353.81;4799439;29;20500;-92
2023/08/20 10:34:52;;;;;;;1.52;1.42;;;;;;;35.31;39.70;100369.47;4812263;29;20049;-92
2023/08/20 10:37:28;;;;;;;1.38;1.13;;;;;;;35.22;39.04;100353.69;4806090;29;20054;-91
2023/08/20 10:39:55;;;;;;;1.73;1.33;;;;;;;35.12;39.99;100341.34;4819449;29;20495;-91
2023/08/20 10:42:23;;;;;;;0.63;0.63;;;;;;;35.06;39.53;100355.28;4811309;29;20043;-91
2023/08/20 10:45:11;;;;;;;1.15;1.10;;;;;;;35.15;37.93;100360.34;4802339;29;20146;-92
2023/08/20 10:47:43;;;;;;;0.98;0.95;;;;;;;35.30;38.57;100353.56;4826312;29;20433;-92
2023/08/20 10:50:15;;;;;;;0.88;0.77;;;;;;;35.50;38.61;100366.66;4802336;29;20485;-90
2023/08/20 10:52:42;;;;;;;0.90;0.90;;;;;;;35.53;36.82;100365.44;4817530;29;20069;-91
2023/08/20 10:55:09;;;;;;;3.25;1.98;;;;;;;35.82;37.14;100357.59;4812807;29;20568;-92
2023/08/20 10:57:35;;;;;;;1.50;1.38;;;;;;;35.97;37.97;100368.06;4803449;29;20286;-90
2023/08/20 11:00:14;;;;;;;1.25;1.15;;;;;;;36.17;35.82;100368.81;4830914;29;20050;-93
2023/08/20 11:02:40;;;;;;;1.42;1.30;;;;;;;35.86;35.80;100360.78;4811510;29;20630;-90
2023/08/20 11:05:21;;;;;;;0.70;0.70;;;;;;;35.95;36.95;100359.25;4829095;29;20073;-91
2023/08/20 11:07:47;;;;;;;3.03;1.92;;;;;;;36.03;35.86;100359.88;4810226;29;20078;-92
2023/08/20 11:10:17;;;;;;;1.38;0.90;;;;;;;36.08;36.14;100334.91;4812717;29;20054;-91
2023/08/20 11:12:45;;;;;;;1.48;1.20;;;;;;;36.19;35.17;100343.00;4834617;29;20037;-93
2023/08/20 11:15:11;;;;;;;1.95;1.17;;;;;;;35.94;35.40;100346.94;4832779;29;20564;-93
2023/08/20 11:17:45;;;;;;;1.58;1.30;;;;;;;36.21;35.85;100343.91;4819341;29;20042;-92
2023/08/20 11:20:11;;;;;;;1.27;1.10;;;;;;;36.15;33.83;100351.38;4816775;29;20678;-92
2023/08/20 11:22:39;;;;;;;0.95;0.90;;;;;;;36.31;34.80;100355.44;4819771;29;20421;-91
2023/08/20 11:27:50;;;;;;;1.13;1.10;;;;;;;36.27;35.23;100346.47;4826636;29;20062;-92
2023/08/20 11:30:19;;;;;;;1.42;1.20;;;;;;;35.67;35.54;100329.00;4784598;29;20073;-94
2023/08/20 11:32:46;;;;;;;1.17;1.10;;;;;;;35.94;35.95;100329.63;4782612;29;20057;-93
2023/08/20 11:35:12;;;;;;;0.80;0.80;;;;;;;36.17;36.21;100351.50;4813745;29;20149;-93
2023/08/20 11:37:38;;;;;;;0.80;0.80;;;;;;;36.30;35.12;100348.13;4780718;29;20053;-93
2023/08/20 11:40:07;;;;;;;1.20;0.77;;;;;;;36.53;34.80;100341.84;4787436;29;20054;-94
2023/08/20 11:43:11;;;;;;;1.58;1.48;;;;;;;36.53;34.43;100341.84;4787995;29;20050;-93
2023/08/20 11:45:53;;;;;;;0.60;0.60;;;;;;;36.64;33.49;100347.75;4818128;29;20199;-93